< Typhoon 196601 1966 Season Typhoon 196603 >
Typhoon 196602 (IRMA)
General InformationTrack Information on Google Maps || Disaster Info.ResourceGoogle EarthGE AnimationAtom FeedGeoJSON
Detalied Best Track (Time Zone = UTC)
Year Month Day Hour Lat. Long. Pressure (hPa) Wind (kt) Class Image Chart
1966 5 10 00 5.6 139.0 1008 0 2 -- Chart
1966 5 10 06 6.1 138.6 1008 0 2 -- Chart
1966 5 10 12 6.8 138.0 1008 0 2 -- Chart
1966 5 10 18 7.5 137.6 1008 0 2 -- Chart
1966 5 11 00 8.0 137.1 1008 0 2 -- Chart
1966 5 11 06 8.1 136.7 1004 0 2 -- Chart
1966 5 11 12 8.3 136.1 1002 0 2 -- Chart
1966 5 11 18 8.6 135.4 1000 0 2 -- Chart
1966 5 12 00 9.0 134.4 998 0 9 -- Chart
1966 5 12 06 9.4 133.7 990 0 9 -- Chart
1966 5 12 12 9.5 133.2 990 0 9 -- Chart
1966 5 12 18 9.6 132.6 990 0 9 -- Chart
1966 5 13 00 9.7 131.9 995 0 9 -- Chart
1966 5 13 06 9.8 131.1 1000 0 9 -- Chart
1966 5 13 12 9.8 130.4 1000 0 9 -- Chart
1966 5 13 18 9.7 130.0 998 0 9 -- Chart
1966 5 14 00 9.6 129.4 998 0 9 -- Chart
1966 5 14 06 9.9 128.9 990 0 9 -- Chart
1966 5 14 12 10.2 128.3 985 0 9 -- Chart
1966 5 14 18 10.2 128.0 980 0 9 -- Chart
1966 5 15 00 10.5 127.4 978 0 9 -- Chart
1966 5 15 06 10.9 126.6 974 0 9 -- Chart
1966 5 15 12 11.2 125.7 974 0 9 -- Chart
1966 5 15 18 11.5 124.9 975 0 9 -- Chart
1966 5 16 00 11.6 124.2 980 0 9 -- Chart
1966 5 16 06 11.8 123.9 986 0 9 -- Chart
1966 5 16 12 12.0 123.4 984 0 9 -- Chart
1966 5 16 18 12.1 122.9 978 0 9 -- Chart
1966 5 17 00 12.3 122.4 972 0 9 -- Chart
1966 5 17 06 12.5 121.9 975 0 9 -- Chart
1966 5 17 12 12.9 121.3 980 0 9 -- Chart
1966 5 17 18 13.2 120.8 985 0 9 -- Chart
1966 5 18 00 13.8 120.1 990 0 9 -- Chart
1966 5 18 06 14.3 119.6 990 0 9 -- Chart
1966 5 18 12 14.5 119.5 985 0 9 -- Chart
1966 5 18 18 15.0 119.5 980 0 9 -- Chart
1966 5 19 00 15.5 119.5 980 0 9 -- Chart
1966 5 19 06 16.1 119.5 980 0 9 -- Chart
1966 5 19 12 16.6 119.5 985 0 9 -- Chart
1966 5 19 18 17.3 119.5 990 0 9 -- Chart
1966 5 20 00 18.0 119.5 990 0 9 -- Chart
1966 5 20 06 18.9 119.6 992 0 9 -- Chart
1966 5 20 12 19.8 120.6 994 0 9 -- Chart
1966 5 20 18 20.7 122.2 995 0 9 -- Chart
1966 5 21 00 21.5 123.9 995 0 9 -- Chart
1966 5 21 06 22.2 125.4 995 0 9 -- Chart
1966 5 21 12 22.9 126.9 994 0 9 -- Chart
1966 5 21 18 23.8 128.1 992 0 9 -- Chart
1966 5 22 00 25.5 130.3 994 0 9 -- Chart
1966 5 22 06 29.0 134.0 996 0 2 -- Chart
Japan Meteorological Agency Best Track Data | Correction Date : 1989-06-01
< Typhoon 196601 1966 Season Typhoon 196603 >

Help